Time;durP1;ratioP1;P1;durP2;ratioP2;P2;SDS_P1;SDS_P2;PMS_P1;PMS_P2;Temp;Humidity;BMP_temperature;BMP_pressure;BME280_temperature;BME280_humidity;BME280_pressure;Samples;Min_cycle;Max_cycle;Signal;HPM_P1;HPM_P2
2024/03/16 00:00:37;;;;;;;5.07;1.53;;;11.30;81.20;;;;;;5037093;28;20386;-76
2024/03/16 00:03:04;;;;;;;4.40;2.17;;;11.30;81.70;;;;;;5036872;28;20393;-76
2024/03/16 00:05:29;;;;;;;4.88;1.60;;;11.30;79.90;;;;;;5037274;28;20474;-76
2024/03/16 00:07:55;;;;;;;1.83;1.20;;;11.30;78.70;;;;;;5036848;28;20466;-76
2024/03/16 00:10:21;;;;;;;3.33;1.30;;;11.30;77.60;;;;;;5037081;28;20462;-76
2024/03/16 00:12:46;;;;;;;2.50;1.33;;;11.40;77.30;;;;;;5036627;28;20397;-77
2024/03/16 00:15:12;;;;;;;3.50;1.20;;;11.50;74.90;;;;;;5037780;28;20403;-76
2024/03/16 00:17:37;;;;;;;2.80;1.30;;;11.50;73.90;;;;;;5037513;28;20383;-75
2024/03/16 00:20:10;;;;;;;3.37;1.27;;;11.50;72.80;;;;;;5036741;28;20393;-76
2024/03/16 00:22:37;;;;;;;4.50;1.30;;;11.50;72.40;;;;;;5037244;28;20398;-76
2024/03/16 00:25:03;;;;;;;2.60;1.40;;;11.60;71.60;;;;;;5019170;28;20757;-75
2024/03/16 00:27:29;;;;;;;4.00;1.10;;;11.60;71.20;;;;;;5037105;28;20943;-76
2024/03/16 00:29:55;;;;;;;4.20;1.10;;;11.60;71.20;;;;;;5037226;28;20387;-76
2024/03/16 00:32:21;;;;;;;5.13;1.40;;;11.60;70.80;;;;;;5016279;28;20425;-76
2024/03/16 00:34:47;;;;;;;3.25;1.17;;;11.60;70.80;;;;;;5041878;28;20406;-75
2024/03/16 00:37:13;;;;;;;5.07;1.20;;;11.70;70.60;;;;;;5041402;28;20546;-74
2024/03/16 00:39:39;;;;;;;4.53;1.30;;;11.60;70.70;;;;;;5041461;28;20386;-76
2024/03/16 00:42:05;;;;;;;6.07;1.40;;;11.60;71.20;;;;;;5041393;28;20396;-75
2024/03/16 00:44:31;;;;;;;4.00;1.30;;;11.50;71.40;;;;;;5039762;28;20391;-74
2024/03/16 00:46:57;;;;;;;8.20;1.60;;;11.60;70.70;;;;;;5040489;28;21052;-77
2024/03/16 00:49:22;;;;;;;5.53;1.70;;;11.70;68.70;;;;;;4999989;28;20786;-76
2024/03/16 00:51:50;;;;;;;5.60;1.83;;;11.70;68.40;;;;;;5033899;28;20407;-76
2024/03/16 00:54:15;;;;;;;7.37;1.67;;;11.70;69.00;;;;;;5033798;28;20511;-75
2024/03/16 00:56:41;;;;;;;6.70;1.60;;;11.70;69.40;;;;;;5037234;28;20383;-75
2024/03/16 00:59:07;;;;;;;8.50;1.80;;;11.70;69.20;;;;;;5039946;28;20407;-75
2024/03/16 01:01:36;;;;;;;5.95;1.80;;;11.70;69.90;;;;;;5021798;28;20387;-75
2024/03/16 01:04:02;;;;;;;9.20;1.90;;;11.70;70.00;;;;;;5041400;28;20423;-76
2024/03/16 01:06:28;;;;;;;5.70;1.58;;;11.70;70.50;;;;;;5037657;28;20396;-77
2024/03/16 01:08:54;;;;;;;6.30;1.60;;;11.60;71.10;;;;;;5035547;28;20390;-76
2024/03/16 01:11:19;;;;;;;6.83;1.60;;;11.60;70.20;;;;;;5033415;28;20449;-75
2024/03/16 01:13:45;;;;;;;10.77;1.70;;;11.70;70.80;;;;;;5033976;28;20427;-76
2024/03/16 01:16:10;;;;;;;4.40;1.70;;;11.70;70.20;;;;;;5033131;28;20386;-75
2024/03/16 01:18:39;;;;;;;5.77;1.70;;;11.70;68.30;;;;;;5033081;28;20379;-76
2024/03/16 01:21:06;;;;;;;8.80;1.60;;;11.70;67.60;;;;;;5032870;28;20909;-76
2024/03/16 01:23:33;;;;;;;8.30;2.00;;;11.70;68.40;;;;;;5032959;28;20389;-77
2024/03/16 01:25:59;;;;;;;9.48;1.80;;;11.70;69.40;;;;;;5032997;28;20398;-75
2024/03/16 01:28:25;;;;;;;7.07;1.80;;;11.60;69.50;;;;;;5032949;28;20387;-75
2024/03/16 01:30:50;;;;;;;8.38;1.60;;;11.70;68.70;;;;;;5042616;28;20490;-77
2024/03/16 01:33:16;;;;;;;6.63;1.80;;;11.70;67.90;;;;;;5040062;28;20458;-76
2024/03/16 01:35:41;;;;;;;5.38;1.55;;;11.70;68.20;;;;;;5038927;28;20391;-76
2024/03/16 01:38:07;;;;;;;7.50;1.90;;;11.70;68.50;;;;;;5038840;28;20682;-76
2024/03/16 01:40:33;;;;;;;6.83;1.90;;;11.70;67.70;;;;;;5039018;28;20394;-75
2024/03/16 01:42:59;;;;;;;7.07;1.70;;;11.70;67.10;;;;;;5038332;28;20474;-75
2024/03/16 01:45:25;;;;;;;10.90;1.90;;;11.80;66.10;;;;;;5039009;28;20394;-78
2024/03/16 01:47:52;;;;;;;6.83;1.40;;;11.70;67.30;;;;;;5042127;28;20388;-75
2024/03/16 01:50:18;;;;;;;7.45;2.20;;;11.70;67.70;;;;;;5038736;28;20893;-76
2024/03/16 01:52:45;;;;;;;7.82;1.60;;;11.70;67.60;;;;;;5037513;28;20959;-75
2024/03/16 01:55:10;;;;;;;4.72;1.70;;;11.70;68.90;;;;;;5037384;28;20384;-75
2024/03/16 01:57:38;;;;;;;3.53;1.40;;;11.70;68.30;;;;;;5037188;28;20390;-76
2024/03/16 02:00:05;;;;;;;4.72;1.25;;;11.70;68.70;;;;;;5036907;28;20394;-76
2024/03/16 02:02:32;;;;;;;5.15;1.52;;;11.70;68.90;;;;;;5035812;28;20391;-75
2024/03/16 02:04:58;;;;;;;5.50;1.50;;;11.60;70.40;;;;;;5033762;28;20387;-76
2024/03/16 02:07:24;;;;;;;7.17;1.50;;;11.60;70.70;;;;;;5033589;28;20406;-77
2024/03/16 02:09:49;;;;;;;9.35;1.90;;;11.60;71.30;;;;;;5033989;28;20445;-77
2024/03/16 02:12:15;;;;;;;8.60;1.50;;;11.60;70.80;;;;;;5034147;28;20885;-77
2024/03/16 02:14:40;;;;;;;8.50;1.70;;;13.00;70.80;;;;;;5034957;28;20498;-76
2024/03/16 02:17:09;;;;;;;7.80;1.70;;;11.50;71.60;;;;;;5038477;28;20399;-77
2024/03/16 02:19:35;;;;;;;7.93;2.08;;;11.50;71.90;;;;;;5041840;28;20379;-77
2024/03/16 02:22:02;;;;;;;7.35;1.60;;;11.50;72.50;;;;;;5034322;28;20431;-76
2024/03/16 02:24:28;;;;;;;5.38;1.63;;;11.40;73.60;;;;;;5039986;28;20387;-75
2024/03/16 02:26:53;;;;;;;4.45;1.70;;;11.30;74.90;;;;;;5040210;28;20401;-73
2024/03/16 02:29:19;;;;;;;5.72;1.80;;;11.30;75.40;;;;;;5038909;28;20396;-76
2024/03/16 02:31:45;;;;;;;9.50;2.10;;;11.30;76.20;;;;;;5034578;28;20390;-77
2024/03/16 02:34:10;;;;;;;6.80;2.05;;;11.30;76.80;;;;;;5016794;28;20506;-76
2024/03/16 02:36:38;;;;;;;10.02;2.10;;;11.20;78.30;;;;;;5034168;28;20949;-77
2024/03/16 02:39:04;;;;;;;6.87;2.00;;;11.10;79.70;;;;;;5032145;28;20426;-76
2024/03/16 02:41:30;;;;;;;6.97;1.90;;;11.10;80.20;;;;;;5037830;28;20370;-76
2024/03/16 02:43:55;;;;;;;8.07;1.88;;;11.20;80.70;;;;;;5033312;28;20391;-75
2024/03/16 02:46:21;;;;;;;5.45;1.90;;;11.20;81.20;;;;;;5033400;28;20420;-76
2024/03/16 02:48:46;;;;;;;5.15;2.10;;;11.30;79.90;;;;;;5015286;28;20402;-75
2024/03/16 02:51:12;;;;;;;9.60;2.23;;;11.30;80.70;;;;;;5033974;28;20407;-76
2024/03/16 02:53:38;;;;;;;7.60;2.10;;;11.30;80.50;;;;;;5033223;28;20419;-75
2024/03/16 02:56:04;;;;;;;6.30;1.80;;;11.40;78.70;;;;;;5033882;28;20383;-76
2024/03/16 02:58:30;;;;;;;10.10;2.60;;;11.50;79.40;;;;;;5033682;28;20390;-75
2024/03/16 03:00:55;;;;;;;5.72;2.15;;;11.50;78.20;;;;;;5034712;28;20392;-76
2024/03/16 03:03:21;;;;;;;11.48;2.53;;;11.50;78.50;;;;;;5035301;28;20391;-76
2024/03/16 03:05:46;;;;;;;8.82;2.20;;;11.60;77.40;;;;;;5036627;28;20390;-76
2024/03/16 03:08:12;;;;;;;8.93;2.50;;;11.60;78.60;;;;;;5032050;28;20391;-76
2024/03/16 03:10:41;;;;;;;18.33;2.90;;;11.50;78.60;;;;;;5031840;28;20465;-76
2024/03/16 03:13:06;;;;;;;7.55;2.50;;;11.50;79.60;;;;;;5032344;28;20409;-75
2024/03/16 03:15:33;;;;;;;5.97;2.17;;;11.50;80.50;;;;;;5031565;28;20379;-77
2024/03/16 03:17:59;;;;;;;7.68;2.63;;;11.40;80.80;;;;;;5031800;28;20410;-77
2024/03/16 03:20:24;;;;;;;9.83;2.90;;;11.50;79.90;;;;;;5031566;28;20390;-76
2024/03/16 03:22:50;;;;;;;8.20;3.00;;;11.50;80.40;;;;;;5032031;28;20402;-77
2024/03/16 03:25:16;;;;;;;5.13;2.40;;;11.40;81.20;;;;;;5032472;28;20411;-76
2024/03/16 03:27:42;;;;;;;5.93;2.45;;;11.50;81.20;;;;;;5035162;28;20387;-76
2024/03/16 03:30:08;;;;;;;9.95;3.35;;;11.40;81.90;;;;;;5031446;28;20437;-77
2024/03/16 03:32:33;;;;;;;7.30;2.70;;;11.40;82.40;;;;;;5031528;28;20379;-77
2024/03/16 03:34:59;;;;;;;9.73;2.90;;;11.40;83.20;;;;;;5035843;28;20747;-77
2024/03/16 03:37:24;;;;;;;10.80;3.03;;;11.40;82.70;;;;;;5032660;28;20869;-76
2024/03/16 03:39:52;;;;;;;9.70;3.40;;;11.40;83.10;;;;;;5032450;28;20862;-77
2024/03/16 03:42:19;;;;;;;9.65;3.40;;;11.30;84.10;;;;;;5031675;28;20387;-77
2024/03/16 03:45:00;;;;;;;11.07;3.70;;;11.30;85.40;;;;;;5032254;28;20437;-76
2024/03/16 03:47:40;;;;;;;7.28;3.40;;;11.20;85.80;;;;;;5032742;28;20391;-77
2024/03/16 03:50:06;;;;;;;9.85;4.30;;;11.30;85.20;;;;;;5030797;28;20395;-77
2024/03/16 03:52:32;;;;;;;7.28;3.40;;;11.30;86.00;;;;;;5030843;28;20738;-77
2024/03/16 03:54:57;;;;;;;9.60;3.78;;;11.30;85.90;;;;;;5030885;28;20416;-76
2024/03/16 03:57:23;;;;;;;10.35;4.03;;;11.50;84.80;;;;;;5030852;28;20402;-77
2024/03/16 03:59:49;;;;;;;12.37;4.00;;;11.50;84.90;;;;;;5039766;28;20450;-75
2024/03/16 04:02:14;;;;;;;8.70;4.07;;;11.50;83.10;;;;;;5038341;28;20458;-76
2024/03/16 04:04:41;;;;;;;12.23;4.30;;;11.50;84.10;;;;;;5031325;28;20415;-77
2024/03/16 04:07:07;;;;;;;8.10;3.90;;;11.50;84.10;;;;;;5034416;28;20387;-77
2024/03/16 04:09:33;;;;;;;10.27;4.60;;;11.50;83.70;;;;;;5035685;28;20383;-76
2024/03/16 04:11:58;;;;;;;9.57;4.47;;;11.50;83.80;;;;;;5036684;28;20387;-78
2024/03/16 04:14:24;;;;;;;14.52;5.00;;;11.60;85.40;;;;;;5036496;28;20903;-75
2024/03/16 04:16:49;;;;;;;9.73;4.97;;;11.60;86.70;;;;;;5036203;28;20889;-76
2024/03/16 04:19:18;;;;;;;12.00;5.20;;;11.60;87.40;;;;;;5038085;28;20390;-75
2024/03/16 04:21:43;;;;;;;11.38;5.45;;;11.60;87.30;;;;;;5020110;28;20774;-75
2024/03/16 04:24:09;;;;;;;12.93;4.90;;;11.60;88.00;;;;;;5038354;28;20379;-75
2024/03/16 04:26:35;;;;;;;18.63;5.50;;;11.50;90.00;;;;;;5037602;28;20490;-75
2024/03/16 04:29:00;;;;;;;16.67;4.95;;;11.50;91.00;;;;;;5037664;28;20624;-75
2024/03/16 04:31:26;;;;;;;11.67;5.00;;;11.40;92.50;;;;;;5039046;28;20394;-75
2024/03/16 04:33:52;;;;;;;15.27;5.60;;;11.40;91.90;;;;;;5021862;28;20403;-76
2024/03/16 04:36:17;;;;;;;13.13;5.50;;;11.40;93.40;;;;;;5037770;28;20900;-76
2024/03/16 04:38:43;;;;;;;8.97;5.33;;;11.40;92.70;;;;;;5038131;28;20781;-75
2024/03/16 04:41:09;;;;;;;9.00;5.20;;;11.40;91.70;;;;;;5040537;28;20387;-76
2024/03/16 04:43:34;;;;;;;11.40;5.37;;;11.40;92.80;;;;;;5035855;28;20433;-76
2024/03/16 04:46:00;;;;;;;14.60;5.50;;;11.50;93.00;;;;;;5036341;28;20718;-76
2024/03/16 04:48:25;;;;;;;12.83;5.73;;;11.40;91.70;;;;;;5037059;28;20399;-77
2024/03/16 04:50:54;;;;;;;14.00;5.17;;;11.50;91.40;;;;;;5039066;28;20877;-76
2024/03/16 04:53:19;;;;;;;13.88;5.72;;;11.50;90.50;;;;;;5036222;28;20442;-76
2024/03/16 04:55:45;;;;;;;12.82;5.53;;;11.50;90.00;;;;;;5043189;28;20391;-75
2024/03/16 04:58:10;;;;;;;8.97;5.20;;;11.50;88.70;;;;;;5033860;28;20387;-76
2024/03/16 05:00:36;;;;;;;8.00;5.20;;;11.60;88.80;;;;;;5034655;28;20441;-77
2024/03/16 05:03:02;;;;;;;12.73;5.70;;;11.60;89.70;;;;;;5033471;28;20387;-76
2024/03/16 05:05:27;;;;;;;10.10;5.30;;;11.60;88.10;;;;;;5034959;28;20438;-75
2024/03/16 05:07:53;;;;;;;12.53;5.50;;;11.60;88.10;;;;;;5034872;28;20387;-77
2024/03/16 05:10:18;;;;;;;12.65;5.70;;;11.60;89.30;;;;;;5035968;28;20403;-77
2024/03/16 05:12:45;;;;;;;14.80;5.90;;;11.60;88.10;;;;;;5034524;28;20379;-76
2024/03/16 05:15:11;;;;;;;14.13;5.88;;;11.60;88.00;;;;;;5035682;28;20407;-76
2024/03/16 05:17:39;;;;;;;10.90;6.05;;;11.60;88.80;;;;;;5034477;28;20437;-75
2024/03/16 05:20:05;;;;;;;11.55;5.60;;;11.60;88.30;;;;;;5037009;28;20379;-76
2024/03/16 05:22:32;;;;;;;13.77;5.70;;;11.60;89.40;;;;;;5036925;28;20399;-76
2024/03/16 05:24:57;;;;;;;13.63;5.97;;;11.60;90.30;;;;;;5035761;28;20383;-75
2024/03/16 05:27:23;;;;;;;14.90;6.00;;;11.60;91.00;;;;;;5017143;28;20406;-77
2024/03/16 05:29:48;;;;;;;15.20;6.27;;;11.50;92.80;;;;;;5034145;28;20379;-76
2024/03/16 05:32:14;;;;;;;15.70;6.80;;;11.50;93.90;;;;;;5034229;28;20988;-76
2024/03/16 05:34:40;;;;;;;10.60;5.70;;;11.50;95.50;;;;;;5033324;28;20443;-75
2024/03/16 05:37:05;;;;;;;11.05;5.70;;;11.50;95.60;;;;;;5033428;28;20391;-76
2024/03/16 05:39:32;;;;;;;16.90;6.88;;;11.50;95.40;;;;;;5033011;28;20387;-77
2024/03/16 05:41:58;;;;;;;14.55;6.60;;;11.40;97.30;;;;;;5036326;28;20379;-76
2024/03/16 05:44:23;;;;;;;11.82;6.07;;;11.40;97.70;;;;;;5035826;28;20399;-76
2024/03/16 05:46:49;;;;;;;12.95;7.03;;;11.50;95.90;;;;;;5022556;28;20383;-77
2024/03/16 05:49:14;;;;;;;13.40;7.80;;;11.50;96.20;;;;;;5036201;28;20477;-76
2024/03/16 05:51:40;;;;;;;17.90;8.13;;;11.50;98.20;;;;;;5037832;28;20384;-76
2024/03/16 05:54:06;;;;;;;16.67;7.53;;;11.50;98.60;;;;;;5037195;28;20406;-77
2024/03/16 05:56:32;;;;;;;10.93;5.57;;;11.10;95.80;;;;;;5039642;28;20388;-76
2024/03/16 05:58:58;;;;;;;18.70;8.30;;;10.60;99.90;;;;;;5033754;28;20383;-76
2024/03/16 06:01:24;;;;;;;16.95;8.20;;;10.30;99.90;;;;;;5036361;28;20383;-75
2024/03/16 06:03:50;;;;;;;17.65;8.05;;;10.20;99.90;;;;;;5034117;28;20529;-76
2024/03/16 06:06:15;;;;;;;17.33;7.97;;;10.10;99.90;;;;;;5034046;28;20449;-76
2024/03/16 06:08:41;;;;;;;14.47;5.70;;;9.90;99.90;;;;;;5015951;28;20993;-76
2024/03/16 06:11:08;;;;;;;9.13;4.57;;;9.80;99.90;;;;;;5034804;28;20391;-76
2024/03/16 06:13:33;;;;;;;14.55;5.30;;;9.70;99.90;;;;;;5015784;28;20952;-76
2024/03/16 06:15:59;;;;;;;11.97;6.13;;;9.60;99.20;;;;;;5034615;28;20391;-76
2024/03/16 06:18:24;;;;;;;17.80;6.17;;;9.60;99.90;;;;;;5037195;28;20445;-75
2024/03/16 06:20:50;;;;;;;12.90;5.20;;;9.60;99.90;;;;;;5038642;28;20383;-75
2024/03/16 06:23:15;;;;;;;12.53;6.00;;;9.60;98.50;;;;;;5034498;28;20436;-77
2024/03/16 06:25:48;;;;;;;9.80;5.17;;;9.60;99.00;;;;;;5037164;28;20415;-76
2024/03/16 06:28:17;;;;;;;15.32;5.68;;;9.60;97.20;;;;;;5038035;28;20379;-76
2024/03/16 06:30:48;;;;;;;10.03;5.10;;;9.60;96.20;;;;;;5037350;28;20456;-76
2024/03/16 06:33:26;;;;;;;9.07;5.22;;;9.60;95.90;;;;;;5017985;28;20441;-75
2024/03/16 06:35:53;;;;;;;11.55;5.88;;;9.70;94.20;;;;;;5017172;28;20387;-74
2024/03/16 06:38:19;;;;;;;10.02;6.53;;;9.70;96.50;;;;;;5045625;28;20390;-75
2024/03/16 06:40:44;;;;;;;13.80;6.57;;;9.80;97.60;;;;;;5050019;28;20383;-75
2024/03/16 06:43:10;;;;;;;10.17;5.20;;;9.90;96.70;;;;;;5048350;28;20437;-75
2024/03/16 06:45:35;;;;;;;12.57;6.20;;;9.90;93.70;;;;;;5036770;28;20394;-75
2024/03/16 06:48:01;;;;;;;10.20;6.30;;;9.80;95.50;;;;;;5034724;28;20395;-75
2024/03/16 06:50:27;;;;;;;9.65;6.05;;;9.80;94.80;;;;;;5035040;28;20427;-75
2024/03/16 06:52:52;;;;;;;14.98;6.50;;;9.90;95.10;;;;;;5015958;28;20391;-75
2024/03/16 06:55:18;;;;;;;11.67;5.90;;;9.90;93.40;;;;;;5015738;28;20991;-76
2024/03/16 06:57:44;;;;;;;12.18;6.72;;;9.90;95.00;;;;;;5033332;28;20379;-75
2024/03/16 07:00:11;;;;;;;8.43;5.60;;;9.90;93.30;;;;;;5032912;28;20383;-77
2024/03/16 07:02:37;;;;;;;15.23;6.75;;;10.00;93.80;;;;;;5033943;28;20391;-74
2024/03/16 07:05:02;;;;;;;13.35;6.47;;;10.00;92.60;;;;;;5032939;28;20897;-75
2024/03/16 07:07:28;;;;;;;11.10;6.72;;;10.00;94.10;;;;;;5034352;28;20394;-77
2024/03/16 07:09:54;;;;;;;10.13;5.60;;;10.00;94.70;;;;;;5033161;28;20475;-76
2024/03/16 07:12:21;;;;;;;10.50;5.60;;;10.00;91.60;;;;;;5033193;28;20744;-75
2024/03/16 07:14:47;;;;;;;6.95;4.40;;;10.00;90.30;;;;;;5032946;28;20981;-75
2024/03/16 07:17:12;;;;;;;11.75;5.10;;;9.90;91.20;;;;;;5032173;28;20441;-78
2024/03/16 07:19:38;;;;;;;8.67;5.50;;;9.90;92.00;;;;;;5030823;28;20462;-77
2024/03/16 07:22:04;;;;;;;10.10;4.23;;;9.90;90.40;;;;;;5032997;28;20394;-75
2024/03/16 07:24:29;;;;;;;7.23;4.00;;;9.90;81.40;;;;;;5031299;28;20889;-76
2024/03/16 07:26:55;;;;;;;7.80;3.80;;;9.90;82.20;;;;;;5031343;28;20417;-75
2024/03/16 07:29:20;;;;;;;5.70;3.90;;;9.90;81.60;;;;;;5031342;28;20391;-77
2024/03/16 07:31:47;;;;;;;4.90;3.80;;;10.10;81.90;;;;;;5032048;28;20387;-77
2024/03/16 07:34:13;;;;;;;6.55;3.50;;;10.20;81.30;;;;;;5031845;28;20407;-77
2024/03/16 07:36:38;;;;;;;6.30;3.43;;;10.10;76.70;;;;;;5031918;28;20382;-78
2024/03/16 07:39:08;;;;;;;5.53;3.50;;;10.10;77.40;;;;;;5032263;28;20387;-77
2024/03/16 07:41:34;;;;;;;4.10;3.38;;;10.20;80.00;;;;;;5032865;28;20888;-76
2024/03/16 07:44:00;;;;;;;5.10;3.60;;;10.30;77.30;;;;;;5036247;28;20382;-76
2024/03/16 07:46:26;;;;;;;5.60;3.20;;;10.40;76.40;;;;;;5036260;28;20442;-76
2024/03/16 07:48:51;;;;;;;4.33;3.37;;;10.40;75.20;;;;;;5036092;28;20405;-77
2024/03/16 07:51:17;;;;;;;3.73;2.47;;;10.30;73.50;;;;;;5036241;28;20398;-76
2024/03/16 07:53:42;;;;;;;8.45;3.60;;;10.00;73.40;;;;;;5039210;28;20406;-76
2024/03/16 07:56:11;;;;;;;6.93;3.90;;;10.00;75.70;;;;;;5043905;28;20973;-77
2024/03/16 07:58:37;;;;;;;8.27;4.20;;;10.10;79.40;;;;;;5037299;28;20390;-76
2024/03/16 08:01:04;;;;;;;8.88;3.80;;;10.20;76.70;;;;;;5018511;28;20454;-77
2024/03/16 08:03:30;;;;;;;9.52;3.80;;;10.40;75.00;;;;;;5036830;28;20391;-76
2024/03/16 08:06:01;;;;;;;5.95;3.80;;;10.60;70.00;;;;;;5037298;28;20401;-77
2024/03/16 08:08:27;;;;;;;4.90;3.30;;;10.50;69.20;;;;;;5035543;28;20447;-76
2024/03/16 08:10:54;;;;;;;7.60;3.92;;;10.50;69.90;;;;;;5035397;28;20410;-76
2024/03/16 08:13:20;;;;;;;7.27;3.83;;;10.50;69.00;;;;;;5035115;28;20410;-78
2024/03/16 08:15:46;;;;;;;6.90;4.40;;;10.40;68.50;;;;;;5039562;28;20391;-77
2024/03/16 08:18:12;;;;;;;12.77;4.13;;;10.40;67.70;;;;;;5038234;28;20455;-77
2024/03/16 08:20:37;;;;;;;7.10;4.97;;;10.40;68.70;;;;;;5036635;28;20931;-78
2024/03/16 08:23:03;;;;;;;11.80;4.90;;;10.30;71.20;;;;;;5043240;28;20398;-76
2024/03/16 08:25:31;;;;;;;8.77;5.27;;;10.30;69.00;;;;;;5045900;28;20433;-78
2024/03/16 08:27:57;;;;;;;7.20;4.83;;;10.30;68.80;;;;;;5044869;28;20472;-77
2024/03/16 08:30:22;;;;;;;10.75;5.20;;;10.20;67.70;;;;;;5038910;28;20409;-77
2024/03/16 08:32:48;;;;;;;10.05;5.45;;;10.10;66.40;;;;;;5026575;28;20447;-77
2024/03/16 08:35:14;;;;;;;6.97;4.50;;;10.20;63.70;;;;;;5056717;28;20395;-76
2024/03/16 08:37:39;;;;;;;9.45;5.25;;;10.30;62.80;;;;;;5056752;28;20391;-76
2024/03/16 08:40:11;;;;;;;6.55;4.57;;;10.30;63.70;;;;;;5057274;28;20398;-76
2024/03/16 08:42:40;;;;;;;8.73;4.40;;;10.30;60.50;;;;;;5056732;28;20439;-77
2024/03/16 08:45:10;;;;;;;6.97;4.13;;;10.40;64.30;;;;;;5033981;28;20789;-77
2024/03/16 08:47:36;;;;;;;7.93;3.83;;;10.40;59.70;;;;;;5056739;28;20398;-77
2024/03/16 08:50:04;;;;;;;10.77;4.00;;;10.30;61.60;;;;;;5039076;28;20417;-77
2024/03/16 08:52:30;;;;;;;9.15;4.60;;;10.20;61.20;;;;;;5056529;28;20423;-77
2024/03/16 08:54:56;;;;;;;6.00;3.53;;;10.10;64.80;;;;;;5040271;28;20434;-77
2024/03/16 08:57:25;;;;;;;9.20;4.10;;;9.90;68.60;;;;;;5058068;28;20395;-77
2024/03/16 08:59:51;;;;;;;6.25;2.78;;;9.60;77.40;;;;;;5057639;28;20386;-76
2024/03/16 09:02:21;;;;;;;9.47;4.33;;;9.30;82.00;;;;;;5057700;28;20403;-76
2024/03/16 09:04:47;;;;;;;11.73;3.28;;;9.20;87.00;;;;;;5057802;28;20379;-76
2024/03/16 09:07:13;;;;;;;5.78;2.67;;;8.90;89.20;;;;;;5056923;28;20485;-76
2024/03/16 09:09:38;;;;;;;6.50;3.30;;;8.80;93.00;;;;;;5056826;28;20398;-76
2024/03/16 09:12:05;;;;;;;8.90;3.03;;;8.80;94.80;;;;;;5057680;28;20398;-78
2024/03/16 09:14:35;;;;;;;8.45;3.40;;;8.80;94.40;;;;;;5051854;28;20435;-77
2024/03/16 09:17:00;;;;;;;3.92;2.72;;;8.80;91.90;;;;;;5038268;28;20462;-77
2024/03/16 09:19:26;;;;;;;9.43;3.10;;;8.80;93.30;;;;;;5037024;28;20418;-77
2024/03/16 09:21:52;;;;;;;7.85;2.30;;;8.70;88.00;;;;;;5037123;28;20410;-76
2024/03/16 09:24:18;;;;;;;2.83;1.90;;;8.80;86.10;;;;;;5035751;28;20379;-77
2024/03/16 09:26:44;;;;;;;4.70;1.90;;;8.90;81.40;;;;;;5038534;28;20383;-77
2024/03/16 09:29:10;;;;;;;2.92;1.70;;;9.20;79.60;;;;;;5038077;28;20379;-78
2024/03/16 09:31:36;;;;;;;5.53;1.60;;;9.40;76.30;;;;;;5037611;28;20444;-78
2024/03/16 09:34:03;;;;;;;6.40;1.50;;;9.50;70.30;;;;;;5043610;28;20434;-77
2024/03/16 09:36:29;;;;;;;6.70;1.90;;;9.60;64.80;;;;;;5046858;28;20383;-76
2024/03/16 09:38:55;;;;;;;6.00;1.90;;;9.80;65.10;;;;;;5048154;28;20486;-77
2024/03/16 09:41:21;;;;;;;7.75;1.73;;;9.90;61.60;;;;;;5019914;28;20467;-79
2024/03/16 09:43:47;;;;;;;4.30;1.30;;;10.00;61.20;;;;;;5041858;28;20397;-77
2024/03/16 09:46:14;;;;;;;6.13;2.10;;;10.10;60.40;;;;;;5034152;28;20403;-78
2024/03/16 09:48:39;;;;;;;11.00;2.17;;;10.30;60.20;;;;;;5049590;28;20472;-77
2024/03/16 09:51:05;;;;;;;8.38;2.85;;;10.30;59.30;;;;;;5026348;28;20395;-79
2024/03/16 09:53:32;;;;;;;5.70;3.10;;;10.30;59.00;;;;;;5036263;28;20474;-76
2024/03/16 09:56:00;;;;;;;5.70;3.20;;;10.20;62.70;;;;;;5037419;28;20444;-78
2024/03/16 09:58:28;;;;;;;6.85;2.78;;;10.10;61.50;;;;;;5035673;28;20399;-78
2024/03/16 10:00:54;;;;;;;5.55;2.28;;;10.00;61.70;;;;;;5035708;28;20453;-78
2024/03/16 10:03:21;;;;;;;6.70;3.43;;;9.90;64.50;;;;;;5036436;28;20936;-77
2024/03/16 10:05:47;;;;;;;9.35;3.40;;;9.80;65.60;;;;;;5025095;28;20456;-78
2024/03/16 10:08:17;;;;;;;6.95;3.05;;;9.60;64.90;;;;;;5042284;28;20402;-78
2024/03/16 10:10:43;;;;;;;5.93;3.00;;;9.70;64.50;;;;;;5041638;28;20747;-77
2024/03/16 10:13:11;;;;;;;12.43;3.10;;;9.70;59.50;;;;;;5042309;28;20387;-76
2024/03/16 10:15:41;;;;;;;5.15;2.60;;;9.80;59.00;;;;;;5045220;28;20394;-77
2024/03/16 10:18:11;;;;;;;4.80;2.38;;;10.00;59.20;;;;;;5045460;28;20383;-77
2024/03/16 10:20:36;;;;;;;5.57;3.30;;;10.00;57.00;;;;;;5046715;28;20391;-77
2024/03/16 10:23:02;;;;;;;10.23;2.40;;;10.10;54.80;;;;;;5046568;28;20394;-77
2024/03/16 10:25:30;;;;;;;7.10;2.10;;;10.00;53.30;;;;;;5046694;28;20387;-77
2024/03/16 10:27:56;;;;;;;3.50;1.50;;;10.00;54.50;;;;;;5044494;28;20375;-78
2024/03/16 10:30:23;;;;;;;10.05;1.90;;;10.00;53.00;;;;;;5040194;28;20462;-78
2024/03/16 10:32:53;;;;;;;4.43;1.42;;;10.10;54.00;;;;;;5040915;28;20383;-77
2024/03/16 10:35:26;;;;;;;4.53;1.52;;;10.30;51.50;;;;;;5044414;28;20390;-75
2024/03/16 10:37:52;;;;;;;5.60;1.77;;;10.50;51.10;;;;;;5041387;28;20474;-77
2024/03/16 10:40:21;;;;;;;9.30;1.90;;;10.70;49.00;;;;;;5037274;28;20379;-77
2024/03/16 10:42:48;;;;;;;17.42;2.10;;;11.00;46.20;;;;;;5037800;28;20474;-77
2024/03/16 10:45:16;;;;;;;2.70;1.50;;;10.80;43.60;;;;;;5042189;28;20384;-77
2024/03/16 10:47:43;;;;;;;4.38;2.05;;;10.80;45.10;;;;;;5040427;28;20429;-77
2024/03/16 10:50:12;;;;;;;7.57;2.50;;;10.80;45.90;;;;;;5037233;28;20383;-78
2024/03/16 10:52:41;;;;;;;5.55;2.33;;;10.70;47.20;;;;;;5039174;28;20467;-78
2024/03/16 10:55:14;;;;;;;8.05;2.50;;;10.80;48.20;;;;;;5042297;28;20490;-78
2024/03/16 10:57:40;;;;;;;5.10;2.00;;;10.80;45.80;;;;;;5038238;28;20383;-76
2024/03/16 11:00:26;;;;;;;7.47;2.07;;;10.60;45.00;;;;;;5041219;28;20447;-78
2024/03/16 11:03:07;;;;;;;9.82;2.60;;;10.40;48.10;;;;;;5042469;28;20532;-78
2024/03/16 11:05:35;;;;;;;4.18;1.48;;;10.40;46.80;;;;;;5037871;28;20740;-77
2024/03/16 11:08:01;;;;;;;13.25;2.00;;;;;;;;;;5040789;28;20387;-77
2024/03/16 11:10:37;;;;;;;2.42;1.67;;;10.30;45.30;;;;;;5041892;28;20384;-77
2024/03/16 11:13:23;;;;;;;6.55;1.63;;;10.50;44.60;;;;;;5042893;28;20455;-80
2024/03/16 11:15:50;;;;;;;3.85;1.60;;;10.50;43.20;;;;;;5038216;28;20386;-79
2024/03/16 11:18:18;;;;;;;8.80;1.85;;;10.50;44.30;;;;;;5036180;28;20391;-78
2024/03/16 11:20:53;;;;;;;6.32;1.70;;;10.30;42.80;;;;;;5031771;28;20383;-75
2024/03/16 11:23:31;;;;;;;5.40;1.50;;;10.30;43.70;;;;;;5025677;28;20490;-79
2024/03/16 11:26:17;;;;;;;5.25;1.70;;;10.40;44.80;;;;;;5019661;28;20404;-78
2024/03/16 11:28:46;;;;;;;4.88;1.40;;;10.30;44.70;;;;;;5031213;28;21558;-77
2024/03/16 11:31:29;;;;;;;3.15;1.30;;;10.10;45.80;;;;;;5021339;28;20399;-79
2024/03/16 11:33:55;;;;;;;6.10;1.30;;;10.00;44.30;;;;;;5035058;28;20504;-77
2024/03/16 11:36:21;;;;;;;4.60;1.30;;;9.90;42.20;;;;;;5058326;28;20384;-77
2024/03/16 11:38:51;;;;;;;6.07;1.30;;;10.00;42.40;;;;;;5040171;28;20418;-72
2024/03/16 11:41:17;;;;;;;2.40;1.00;;;10.10;39.40;;;;;;5030918;28;20390;-73
2024/03/16 11:43:43;;;;;;;4.13;1.50;;;10.10;39.30;;;;;;5031247;28;20446;-71
2024/03/16 11:46:09;;;;;;;7.43;1.37;;;10.30;38.70;;;;;;5031259;28;20470;-72
2024/03/16 11:48:34;;;;;;;2.67;0.85;;;10.60;37.80;;;;;;5031369;28;20391;-74
2024/03/16 11:51:00;;;;;;;4.03;1.20;;;10.80;35.90;;;;;;5047179;28;20462;-73
2024/03/16 11:53:26;;;;;;;4.85;1.20;;;10.90;34.40;;;;;;5050717;28;20487;-74
2024/03/16 11:55:51;;;;;;;6.70;1.58;;;10.90;35.50;;;;;;5050844;28;20392;-72
2024/03/16 11:58:17;;;;;;;2.13;1.10;;;11.00;34.30;;;;;;5050679;28;20415;-72
2024/03/16 12:00:45;;;;;;;3.47;1.10;;;11.00;33.70;;;;;;5050454;28;20386;-73
2024/03/16 12:03:12;;;;;;;5.20;1.20;;;11.10;34.80;;;;;;5050604;28;20896;-72
2024/03/16 12:05:37;;;;;;;2.80;1.15;;;11.50;35.70;;;;;;5050810;28;20385;-72
2024/03/16 12:08:04;;;;;;;1.92;1.05;;;11.90;34.40;;;;;;5050595;28;20385;-72
2024/03/16 12:10:31;;;;;;;2.55;1.00;;;12.30;31.50;;;;;;5039645;28;20421;-73
2024/03/16 12:12:57;;;;;;;1.70;0.80;;;12.00;30.50;;;;;;5025288;28;20385;-73
2024/03/16 12:15:24;;;;;;;2.57;1.00;;;11.40;30.10;;;;;;5012646;28;20389;-74
2024/03/16 12:17:51;;;;;;;3.60;1.00;;;11.30;32.30;;;;;;5024291;28;20786;-73
2024/03/16 12:20:16;;;;;;;3.80;1.13;;;11.00;32.00;;;;;;5031509;28;20403;-73
2024/03/16 12:22:54;;;;;;;3.88;1.17;;;11.00;32.90;;;;;;5031475;28;20399;-75
2024/03/16 12:25:25;;;;;;;3.13;1.10;;;10.90;32.30;;;;;;5031634;28;20873;-73
2024/03/16 12:27:54;;;;;;;4.85;1.20;;;10.90;33.40;;;;;;5047585;28;20385;-72
2024/03/16 12:30:23;;;;;;;5.60;1.20;;;11.00;32.20;;;;;;5024675;28;20391;-72
2024/03/16 12:32:48;;;;;;;2.90;0.90;;;10.90;32.40;;;;;;5034599;28;20387;-73
2024/03/16 12:35:14;;;;;;;2.47;0.95;;;10.90;33.40;;;;;;5035914;28;20482;-72
2024/03/16 12:37:40;;;;;;;5.38;1.25;;;11.10;33.40;;;;;;5027355;28;20453;-72
2024/03/16 12:40:07;;;;;;;3.45;1.40;;;11.30;32.70;;;;;;5034293;28;20383;-73
2024/03/16 12:42:33;;;;;;;2.30;1.00;;;11.30;31.90;;;;;;5035686;28;20765;-72